sensor_id;sensor_type;location;lat;lon;timestamp;P1;durP1;ratioP1;P2;durP2;ratioP2
20480;SDS011;10399;50.754;3.366;2023-05-21T00:00:28;11.00;;;5.90;;
20480;SDS011;10399;50.754;3.366;2023-05-21T00:02:56;12.30;;;5.50;;
20480;SDS011;10399;50.754;3.366;2023-05-21T00:05:24;17.15;;;5.90;;
20480;SDS011;10399;50.754;3.366;2023-05-21T00:07:51;12.73;;;5.63;;
20480;SDS011;10399;50.754;3.366;2023-05-21T00:10:20;9.35;;;5.10;;
20480;SDS011;10399;50.754;3.366;2023-05-21T00:12:47;16.60;;;5.82;;
20480;SDS011;10399;50.754;3.366;2023-05-21T00:15:14;9.23;;;5.80;;
20480;SDS011;10399;50.754;3.366;2023-05-21T00:17:41;13.25;;;5.75;;
20480;SDS011;10399;50.754;3.366;2023-05-21T00:20:10;14.80;;;6.30;;
20480;SDS011;10399;50.754;3.366;2023-05-21T00:22:38;11.40;;;5.43;;
20480;SDS011;10399;50.754;3.366;2023-05-21T00:25:08;9.88;;;5.85;;
20480;SDS011;10399;50.754;3.366;2023-05-21T00:27:38;12.95;;;5.25;;
20480;SDS011;10399;50.754;3.366;2023-05-21T00:30:05;8.70;;;5.90;;
20480;SDS011;10399;50.754;3.366;2023-05-21T00:32:33;12.50;;;6.15;;
20480;SDS011;10399;50.754;3.366;2023-05-21T00:35:00;10.05;;;6.35;;
20480;SDS011;10399;50.754;3.366;2023-05-21T00:37:27;9.38;;;5.90;;
20480;SDS011;10399;50.754;3.366;2023-05-21T00:40:00;10.82;;;5.82;;
20480;SDS011;10399;50.754;3.366;2023-05-21T00:42:28;12.60;;;5.50;;
20480;SDS011;10399;50.754;3.366;2023-05-21T00:44:56;11.05;;;5.28;;
20480;SDS011;10399;50.754;3.366;2023-05-21T00:47:23;13.52;;;5.63;;
20480;SDS011;10399;50.754;3.366;2023-05-21T00:49:52;10.52;;;6.40;;
20480;SDS011;10399;50.754;3.366;2023-05-21T00:52:19;9.40;;;5.30;;
20480;SDS011;10399;50.754;3.366;2023-05-21T00:54:48;10.68;;;5.50;;
20480;SDS011;10399;50.754;3.366;2023-05-21T00:57:19;9.18;;;6.22;;
20480;SDS011;10399;50.754;3.366;2023-05-21T00:59:49;12.52;;;6.65;;
20480;SDS011;10399;50.754;3.366;2023-05-21T01:02:18;10.80;;;6.03;;
20480;SDS011;10399;50.754;3.366;2023-05-21T01:04:45;10.43;;;5.80;;
20480;SDS011;10399;50.754;3.366;2023-05-21T01:07:12;9.77;;;6.63;;
20480;SDS011;10399;50.754;3.366;2023-05-21T01:09:40;10.85;;;6.93;;
20480;SDS011;10399;50.754;3.366;2023-05-21T01:12:08;13.27;;;6.97;;
20480;SDS011;10399;50.754;3.366;2023-05-21T01:14:36;11.75;;;6.75;;
20480;SDS011;10399;50.754;3.366;2023-05-21T01:17:04;12.07;;;7.22;;
20480;SDS011;10399;50.754;3.366;2023-05-21T01:19:35;11.02;;;7.63;;
20480;SDS011;10399;50.754;3.366;2023-05-21T01:22:04;13.88;;;7.43;;
20480;SDS011;10399;50.754;3.366;2023-05-21T01:24:33;12.43;;;7.85;;
20480;SDS011;10399;50.754;3.366;2023-05-21T01:27:00;16.40;;;8.95;;
20480;SDS011;10399;50.754;3.366;2023-05-21T01:29:28;14.45;;;8.02;;
20480;SDS011;10399;50.754;3.366;2023-05-21T01:31:58;13.48;;;7.95;;
20480;SDS011;10399;50.754;3.366;2023-05-21T01:34:29;14.23;;;8.50;;
20480;SDS011;10399;50.754;3.366;2023-05-21T01:37:07;13.80;;;8.95;;
20480;SDS011;10399;50.754;3.366;2023-05-21T01:39:37;19.75;;;8.85;;
20480;SDS011;10399;50.754;3.366;2023-05-21T01:42:09;13.25;;;8.77;;
20480;SDS011;10399;50.754;3.366;2023-05-21T01:44:36;15.05;;;9.38;;
20480;SDS011;10399;50.754;3.366;2023-05-21T01:47:05;13.52;;;8.77;;
20480;SDS011;10399;50.754;3.366;2023-05-21T01:49:32;11.75;;;8.88;;
20480;SDS011;10399;50.754;3.366;2023-05-21T01:51:59;16.27;;;8.48;;
20480;SDS011;10399;50.754;3.366;2023-05-21T01:54:27;15.25;;;9.40;;
20480;SDS011;10399;50.754;3.366;2023-05-21T01:56:54;15.45;;;9.18;;
20480;SDS011;10399;50.754;3.366;2023-05-21T01:59:22;12.30;;;9.13;;
20480;SDS011;10399;50.754;3.366;2023-05-21T02:01:49;13.45;;;9.30;;
20480;SDS011;10399;50.754;3.366;2023-05-21T02:04:16;11.88;;;8.50;;
20480;SDS011;10399;50.754;3.366;2023-05-21T02:06:43;14.07;;;9.45;;
20480;SDS011;10399;50.754;3.366;2023-05-21T02:09:11;14.90;;;9.07;;
20480;SDS011;10399;50.754;3.366;2023-05-21T02:11:38;12.93;;;9.25;;
20480;SDS011;10399;50.754;3.366;2023-05-21T02:14:05;14.07;;;9.45;;
20480;SDS011;10399;50.754;3.366;2023-05-21T02:16:33;11.80;;;9.52;;
20480;SDS011;10399;50.754;3.366;2023-05-21T02:19:01;12.77;;;9.50;;
20480;SDS011;10399;50.754;3.366;2023-05-21T02:21:30;14.55;;;9.30;;
20480;SDS011;10399;50.754;3.366;2023-05-21T02:23:57;26.63;;;10.38;;
20480;SDS011;10399;50.754;3.366;2023-05-21T02:26:24;13.70;;;8.90;;
20480;SDS011;10399;50.754;3.366;2023-05-21T02:28:51;14.45;;;9.40;;
20480;SDS011;10399;50.754;3.366;2023-05-21T02:31:18;16.13;;;9.30;;
20480;SDS011;10399;50.754;3.366;2023-05-21T02:33:45;13.77;;;8.45;;
20480;SDS011;10399;50.754;3.366;2023-05-21T02:36:12;14.75;;;9.73;;
20480;SDS011;10399;50.754;3.366;2023-05-21T02:38:40;12.85;;;9.20;;
20480;SDS011;10399;50.754;3.366;2023-05-21T02:41:09;14.30;;;8.95;;
20480;SDS011;10399;50.754;3.366;2023-05-21T02:43:37;12.23;;;8.68;;
20480;SDS011;10399;50.754;3.366;2023-05-21T02:46:04;16.35;;;9.15;;
20480;SDS011;10399;50.754;3.366;2023-05-21T02:48:33;13.20;;;8.45;;
20480;SDS011;10399;50.754;3.366;2023-05-21T02:51:00;13.65;;;8.85;;
20480;SDS011;10399;50.754;3.366;2023-05-21T02:53:27;13.63;;;8.90;;
20480;SDS011;10399;50.754;3.366;2023-05-21T02:55:54;13.05;;;8.57;;
20480;SDS011;10399;50.754;3.366;2023-05-21T02:58:22;14.32;;;9.63;;
20480;SDS011;10399;50.754;3.366;2023-05-21T03:00:50;23.65;;;9.38;;
20480;SDS011;10399;50.754;3.366;2023-05-21T03:03:19;13.00;;;8.65;;
20480;SDS011;10399;50.754;3.366;2023-05-21T03:05:46;11.60;;;8.43;;
20480;SDS011;10399;50.754;3.366;2023-05-21T03:08:13;13.15;;;9.27;;
20480;SDS011;10399;50.754;3.366;2023-05-21T03:10:40;13.27;;;9.15;;
20480;SDS011;10399;50.754;3.366;2023-05-21T03:13:07;11.18;;;8.73;;
20480;SDS011;10399;50.754;3.366;2023-05-21T03:15:35;12.32;;;9.15;;
20480;SDS011;10399;50.754;3.366;2023-05-21T03:18:06;14.88;;;9.15;;
20480;SDS011;10399;50.754;3.366;2023-05-21T03:20:33;13.90;;;9.05;;
20480;SDS011;10399;50.754;3.366;2023-05-21T03:23:00;16.50;;;9.70;;
20480;SDS011;10399;50.754;3.366;2023-05-21T03:25:29;13.45;;;9.88;;
20480;SDS011;10399;50.754;3.366;2023-05-21T03:27:56;12.18;;;9.63;;
20480;SDS011;10399;50.754;3.366;2023-05-21T03:30:24;13.57;;;10.18;;
20480;SDS011;10399;50.754;3.366;2023-05-21T03:32:51;12.85;;;9.70;;
20480;SDS011;10399;50.754;3.366;2023-05-21T03:35:18;14.18;;;10.55;;
20480;SDS011;10399;50.754;3.366;2023-05-21T03:37:45;11.20;;;9.65;;
20480;SDS011;10399;50.754;3.366;2023-05-21T03:40:12;14.25;;;9.23;;
20480;SDS011;10399;50.754;3.366;2023-05-21T03:42:42;14.55;;;9.48;;
20480;SDS011;10399;50.754;3.366;2023-05-21T03:45:10;13.50;;;9.80;;
20480;SDS011;10399;50.754;3.366;2023-05-21T03:47:38;13.50;;;9.68;;
20480;SDS011;10399;50.754;3.366;2023-05-21T03:50:07;12.52;;;9.18;;
20480;SDS011;10399;50.754;3.366;2023-05-21T03:52:36;12.63;;;9.32;;
20480;SDS011;10399;50.754;3.366;2023-05-21T03:55:04;10.88;;;8.70;;
20480;SDS011;10399;50.754;3.366;2023-05-21T03:57:32;10.25;;;8.45;;
20480;SDS011;10399;50.754;3.366;2023-05-21T03:59:59;12.48;;;9.27;;
20480;SDS011;10399;50.754;3.366;2023-05-21T04:02:28;14.82;;;8.63;;
20480;SDS011;10399;50.754;3.366;2023-05-21T04:04:55;16.05;;;9.15;;
20480;SDS011;10399;50.754;3.366;2023-05-21T04:07:23;19.60;;;9.65;;
20480;SDS011;10399;50.754;3.366;2023-05-21T04:09:50;13.63;;;9.00;;
20480;SDS011;10399;50.754;3.366;2023-05-21T04:12:17;12.40;;;8.77;;
20480;SDS011;10399;50.754;3.366;2023-05-21T04:14:45;16.05;;;8.98;;
20480;SDS011;10399;50.754;3.366;2023-05-21T04:17:13;13.57;;;9.30;;
20480;SDS011;10399;50.754;3.366;2023-05-21T04:19:41;15.63;;;9.15;;
20480;SDS011;10399;50.754;3.366;2023-05-21T04:22:09;16.27;;;9.23;;
20480;SDS011;10399;50.754;3.366;2023-05-21T04:24:37;11.45;;;8.82;;
20480;SDS011;10399;50.754;3.366;2023-05-21T04:27:06;13.93;;;9.88;;
20480;SDS011;10399;50.754;3.366;2023-05-21T04:29:35;12.13;;;9.45;;
20480;SDS011;10399;50.754;3.366;2023-05-21T04:32:03;17.10;;;9.68;;
20480;SDS011;10399;50.754;3.366;2023-05-21T04:34:31;12.55;;;9.38;;
20480;SDS011;10399;50.754;3.366;2023-05-21T04:36:59;11.32;;;9.40;;
20480;SDS011;10399;50.754;3.366;2023-05-21T04:39:30;16.30;;;9.70;;
20480;SDS011;10399;50.754;3.366;2023-05-21T04:41:58;18.88;;;9.50;;
20480;SDS011;10399;50.754;3.366;2023-05-21T04:44:25;13.65;;;9.25;;
20480;SDS011;10399;50.754;3.366;2023-05-21T04:46:53;15.77;;;9.82;;
20480;SDS011;10399;50.754;3.366;2023-05-21T04:49:23;14.23;;;9.80;;
20480;SDS011;10399;50.754;3.366;2023-05-21T04:51:51;15.05;;;9.73;;
20480;SDS011;10399;50.754;3.366;2023-05-21T04:54:19;14.02;;;10.07;;
20480;SDS011;10399;50.754;3.366;2023-05-21T04:56:47;11.25;;;9.90;;
20480;SDS011;10399;50.754;3.366;2023-05-21T04:59:15;14.55;;;10.55;;
20480;SDS011;10399;50.754;3.366;2023-05-21T05:01:44;18.25;;;10.73;;
20480;SDS011;10399;50.754;3.366;2023-05-21T05:04:11;13.05;;;10.82;;
20480;SDS011;10399;50.754;3.366;2023-05-21T05:06:39;13.00;;;10.77;;
20480;SDS011;10399;50.754;3.366;2023-05-21T05:09:08;14.50;;;10.75;;
20480;SDS011;10399;50.754;3.366;2023-05-21T05:11:36;14.20;;;10.70;;
20480;SDS011;10399;50.754;3.366;2023-05-21T05:14:03;13.93;;;10.93;;
20480;SDS011;10399;50.754;3.366;2023-05-21T05:16:31;17.42;;;11.38;;
20480;SDS011;10399;50.754;3.366;2023-05-21T05:19:01;14.95;;;10.75;;
20480;SDS011;10399;50.754;3.366;2023-05-21T05:21:28;18.65;;;11.68;;
20480;SDS011;10399;50.754;3.366;2023-05-21T05:23:55;15.38;;;11.88;;
20480;SDS011;10399;50.754;3.366;2023-05-21T05:26:24;16.05;;;11.75;;
20480;SDS011;10399;50.754;3.366;2023-05-21T05:28:51;14.60;;;12.07;;
20480;SDS011;10399;50.754;3.366;2023-05-21T05:31:19;24.08;;;12.43;;
20480;SDS011;10399;50.754;3.366;2023-05-21T05:33:46;15.32;;;12.27;;
20480;SDS011;10399;50.754;3.366;2023-05-21T05:36:14;13.60;;;11.93;;
20480;SDS011;10399;50.754;3.366;2023-05-21T05:38:41;15.88;;;12.45;;
20480;SDS011;10399;50.754;3.366;2023-05-21T05:41:08;21.50;;;12.32;;
20480;SDS011;10399;50.754;3.366;2023-05-21T05:43:35;19.08;;;13.38;;
20480;SDS011;10399;50.754;3.366;2023-05-21T05:46:02;16.52;;;13.00;;
20480;SDS011;10399;50.754;3.366;2023-05-21T05:48:29;21.77;;;12.80;;
20480;SDS011;10399;50.754;3.366;2023-05-21T05:50:56;17.08;;;12.52;;
20480;SDS011;10399;50.754;3.366;2023-05-21T05:53:23;19.27;;;12.38;;
20480;SDS011;10399;50.754;3.366;2023-05-21T05:55:51;15.77;;;12.05;;
20480;SDS011;10399;50.754;3.366;2023-05-21T05:58:18;17.67;;;12.32;;
20480;SDS011;10399;50.754;3.366;2023-05-21T06:00:49;17.80;;;12.23;;
20480;SDS011;10399;50.754;3.366;2023-05-21T06:03:17;15.90;;;12.10;;
20480;SDS011;10399;50.754;3.366;2023-05-21T06:05:45;16.48;;;12.35;;
20480;SDS011;10399;50.754;3.366;2023-05-21T06:08:12;18.65;;;12.32;;
20480;SDS011;10399;50.754;3.366;2023-05-21T06:10:39;16.27;;;12.15;;
20480;SDS011;10399;50.754;3.366;2023-05-21T06:13:06;22.10;;;12.70;;
20480;SDS011;10399;50.754;3.366;2023-05-21T06:15:34;19.23;;;12.60;;
20480;SDS011;10399;50.754;3.366;2023-05-21T06:18:01;17.13;;;12.40;;
20480;SDS011;10399;50.754;3.366;2023-05-21T06:20:28;18.35;;;12.13;;
20480;SDS011;10399;50.754;3.366;2023-05-21T06:22:55;20.08;;;12.80;;
20480;SDS011;10399;50.754;3.366;2023-05-21T06:25:22;16.40;;;12.77;;
20480;SDS011;10399;50.754;3.366;2023-05-21T06:27:51;15.57;;;12.02;;
20480;SDS011;10399;50.754;3.366;2023-05-21T06:30:18;18.17;;;12.02;;
20480;SDS011;10399;50.754;3.366;2023-05-21T06:32:45;19.10;;;12.15;;
20480;SDS011;10399;50.754;3.366;2023-05-21T06:35:12;17.55;;;12.43;;
20480;SDS011;10399;50.754;3.366;2023-05-21T06:37:39;20.15;;;11.82;;
20480;SDS011;10399;50.754;3.366;2023-05-21T06:40:06;20.92;;;11.73;;
20480;SDS011;10399;50.754;3.366;2023-05-21T06:42:33;17.65;;;11.60;;
20480;SDS011;10399;50.754;3.366;2023-05-21T06:45:00;16.65;;;11.75;;
20480;SDS011;10399;50.754;3.366;2023-05-21T06:47:27;17.17;;;12.43;;
20480;SDS011;10399;50.754;3.366;2023-05-21T06:49:54;13.32;;;11.40;;
20480;SDS011;10399;50.754;3.366;2023-05-21T06:52:21;20.48;;;11.75;;
20480;SDS011;10399;50.754;3.366;2023-05-21T06:54:48;18.17;;;11.20;;
20480;SDS011;10399;50.754;3.366;2023-05-21T06:57:15;15.93;;;11.82;;
20480;SDS011;10399;50.754;3.366;2023-05-21T06:59:43;22.08;;;12.85;;
20480;SDS011;10399;50.754;3.366;2023-05-21T07:02:11;16.55;;;11.52;;
20480;SDS011;10399;50.754;3.366;2023-05-21T07:04:38;15.65;;;11.55;;
20480;SDS011;10399;50.754;3.366;2023-05-21T07:07:06;15.63;;;11.05;;
20480;SDS011;10399;50.754;3.366;2023-05-21T07:09:33;17.27;;;11.70;;
20480;SDS011;10399;50.754;3.366;2023-05-21T07:12:00;17.85;;;11.38;;
20480;SDS011;10399;50.754;3.366;2023-05-21T07:14:27;19.20;;;12.07;;
20480;SDS011;10399;50.754;3.366;2023-05-21T07:16:54;17.02;;;11.05;;
20480;SDS011;10399;50.754;3.366;2023-05-21T07:19:21;18.15;;;10.43;;
20480;SDS011;10399;50.754;3.366;2023-05-21T07:21:48;22.80;;;11.30;;
20480;SDS011;10399;50.754;3.366;2023-05-21T07:24:15;16.05;;;10.32;;
20480;SDS011;10399;50.754;3.366;2023-05-21T07:26:42;19.63;;;10.57;;
20480;SDS011;10399;50.754;3.366;2023-05-21T07:29:09;17.45;;;10.50;;
20480;SDS011;10399;50.754;3.366;2023-05-21T07:31:36;15.32;;;9.90;;
20480;SDS011;10399;50.754;3.366;2023-05-21T07:34:03;17.92;;;10.32;;
20480;SDS011;10399;50.754;3.366;2023-05-21T07:36:30;23.20;;;10.85;;
20480;SDS011;10399;50.754;3.366;2023-05-21T07:38:59;15.85;;;10.27;;
20480;SDS011;10399;50.754;3.366;2023-05-21T07:41:26;14.68;;;9.90;;
20480;SDS011;10399;50.754;3.366;2023-05-21T07:43:53;12.25;;;9.38;;
20480;SDS011;10399;50.754;3.366;2023-05-21T07:46:20;13.40;;;9.35;;
20480;SDS011;10399;50.754;3.366;2023-05-21T07:48:47;15.68;;;8.85;;
20480;SDS011;10399;50.754;3.366;2023-05-21T07:51:15;15.27;;;8.93;;
20480;SDS011;10399;50.754;3.366;2023-05-21T07:53:43;14.55;;;8.70;;
20480;SDS011;10399;50.754;3.366;2023-05-21T07:56:10;14.25;;;8.48;;
20480;SDS011;10399;50.754;3.366;2023-05-21T07:58:38;12.60;;;8.30;;
20480;SDS011;10399;50.754;3.366;2023-05-21T08:01:11;11.88;;;8.75;;
20480;SDS011;10399;50.754;3.366;2023-05-21T08:03:39;22.05;;;8.95;;
20480;SDS011;10399;50.754;3.366;2023-05-21T08:06:07;14.40;;;8.50;;
20480;SDS011;10399;50.754;3.366;2023-05-21T08:08:34;15.13;;;8.27;;
20480;SDS011;10399;50.754;3.366;2023-05-21T08:11:01;13.40;;;8.40;;
20480;SDS011;10399;50.754;3.366;2023-05-21T08:13:28;12.85;;;8.40;;
20480;SDS011;10399;50.754;3.366;2023-05-21T08:15:55;14.52;;;8.30;;
20480;SDS011;10399;50.754;3.366;2023-05-21T08:18:22;12.07;;;8.02;;
20480;SDS011;10399;50.754;3.366;2023-05-21T08:20:50;13.77;;;7.78;;
20480;SDS011;10399;50.754;3.366;2023-05-21T08:23:17;12.80;;;8.57;;
20480;SDS011;10399;50.754;3.366;2023-05-21T08:25:44;9.38;;;7.15;;
20480;SDS011;10399;50.754;3.366;2023-05-21T08:28:11;10.32;;;7.50;;
20480;SDS011;10399;50.754;3.366;2023-05-21T08:30:38;10.27;;;7.93;;
20480;SDS011;10399;50.754;3.366;2023-05-21T08:33:06;11.25;;;7.97;;
20480;SDS011;10399;50.754;3.366;2023-05-21T08:35:33;11.50;;;8.10;;
20480;SDS011;10399;50.754;3.366;2023-05-21T08:38:01;11.25;;;8.13;;
20480;SDS011;10399;50.754;3.366;2023-05-21T08:40:28;13.60;;;7.97;;
20480;SDS011;10399;50.754;3.366;2023-05-21T08:42:56;14.45;;;8.38;;
20480;SDS011;10399;50.754;3.366;2023-05-21T08:45:23;11.88;;;8.50;;
20480;SDS011;10399;50.754;3.366;2023-05-21T08:47:53;13.27;;;8.98;;
20480;SDS011;10399;50.754;3.366;2023-05-21T08:50:26;16.63;;;8.15;;
20480;SDS011;10399;50.754;3.366;2023-05-21T08:52:54;14.05;;;9.13;;
20480;SDS011;10399;50.754;3.366;2023-05-21T08:55:24;12.50;;;9.18;;
20480;SDS011;10399;50.754;3.366;2023-05-21T08:57:53;11.52;;;8.77;;
20480;SDS011;10399;50.754;3.366;2023-05-21T09:00:22;15.32;;;8.80;;
20480;SDS011;10399;50.754;3.366;2023-05-21T09:02:49;15.10;;;9.18;;
20480;SDS011;10399;50.754;3.366;2023-05-21T09:05:19;11.45;;;8.35;;
20480;SDS011;10399;50.754;3.366;2023-05-21T09:10:47;15.45;;;9.25;;
20480;SDS011;10399;50.754;3.366;2023-05-21T09:13:18;11.65;;;8.13;;
20480;SDS011;10399;50.754;3.366;2023-05-21T09:15:46;15.68;;;9.18;;
20480;SDS011;10399;50.754;3.366;2023-05-21T09:18:14;15.13;;;9.00;;
20480;SDS011;10399;50.754;3.366;2023-05-21T09:20:41;13.18;;;8.82;;
20480;SDS011;10399;50.754;3.366;2023-05-21T09:23:09;11.55;;;8.88;;
20480;SDS011;10399;50.754;3.366;2023-05-21T09:25:46;14.65;;;8.98;;
20480;SDS011;10399;50.754;3.366;2023-05-21T09:28:15;14.77;;;8.82;;
20480;SDS011;10399;50.754;3.366;2023-05-21T09:30:46;13.73;;;9.05;;
20480;SDS011;10399;50.754;3.366;2023-05-21T09:33:23;11.50;;;8.25;;
20480;SDS011;10399;50.754;3.366;2023-05-21T09:35:52;13.93;;;9.68;;
20480;SDS011;10399;50.754;3.366;2023-05-21T09:38:22;14.85;;;8.30;;
20480;SDS011;10399;50.754;3.366;2023-05-21T09:40:50;12.30;;;8.82;;
20480;SDS011;10399;50.754;3.366;2023-05-21T09:43:20;12.88;;;8.68;;
20480;SDS011;10399;50.754;3.366;2023-05-21T09:45:51;13.93;;;9.20;;
20480;SDS011;10399;50.754;3.366;2023-05-21T09:51:16;11.23;;;8.25;;
20480;SDS011;10399;50.754;3.366;2023-05-21T09:53:53;11.55;;;8.15;;
20480;SDS011;10399;50.754;3.366;2023-05-21T09:56:24;12.23;;;7.60;;
20480;SDS011;10399;50.754;3.366;2023-05-21T09:59:01;18.35;;;9.00;;
20480;SDS011;10399;50.754;3.366;2023-05-21T10:01:32;17.15;;;8.77;;
20480;SDS011;10399;50.754;3.366;2023-05-21T10:04:03;14.25;;;8.90;;
20480;SDS011;10399;50.754;3.366;2023-05-21T10:06:33;15.82;;;9.30;;
20480;SDS011;10399;50.754;3.366;2023-05-21T10:09:07;9.52;;;8.13;;
20480;SDS011;10399;50.754;3.366;2023-05-21T10:11:36;13.95;;;8.95;;
20480;SDS011;10399;50.754;3.366;2023-05-21T10:14:08;13.95;;;9.30;;
20480;SDS011;10399;50.754;3.366;2023-05-21T10:16:56;12.15;;;8.50;;
20480;SDS011;10399;50.754;3.366;2023-05-21T10:19:25;13.13;;;8.55;;
20480;SDS011;10399;50.754;3.366;2023-05-21T10:21:55;14.32;;;8.32;;
20480;SDS011;10399;50.754;3.366;2023-05-21T10:24:23;13.65;;;9.10;;
20480;SDS011;10399;50.754;3.366;2023-05-21T10:26:51;12.60;;;8.50;;
20480;SDS011;10399;50.754;3.366;2023-05-21T10:29:18;12.02;;;9.45;;
20480;SDS011;10399;50.754;3.366;2023-05-21T10:31:47;12.25;;;9.40;;
20480;SDS011;10399;50.754;3.366;2023-05-21T10:34:18;10.00;;;7.97;;
20480;SDS011;10399;50.754;3.366;2023-05-21T10:36:47;14.98;;;8.27;;
20480;SDS011;10399;50.754;3.366;2023-05-21T10:39:16;16.10;;;9.00;;
20480;SDS011;10399;50.754;3.366;2023-05-21T10:41:48;11.70;;;8.35;;
20480;SDS011;10399;50.754;3.366;2023-05-21T10:50:15;12.85;;;8.75;;
20480;SDS011;10399;50.754;3.366;2023-05-21T10:56:17;15.15;;;9.23;;
20480;SDS011;10399;50.754;3.366;2023-05-21T11:01:38;14.35;;;9.60;;
20480;SDS011;10399;50.754;3.366;2023-05-21T11:04:06;15.70;;;10.70;;
20480;SDS011;10399;50.754;3.366;2023-05-21T11:06:34;18.33;;;10.20;;
20480;SDS011;10399;50.754;3.366;2023-05-21T11:09:01;19.00;;;10.82;;
20480;SDS011;10399;50.754;3.366;2023-05-21T11:14:26;14.23;;;10.55;;
20480;SDS011;10399;50.754;3.366;2023-05-21T11:19:45;16.23;;;10.60;;
20480;SDS011;10399;50.754;3.366;2023-05-21T11:22:19;15.70;;;11.27;;
20480;SDS011;10399;50.754;3.366;2023-05-21T11:24:50;17.83;;;10.73;;
20480;SDS011;10399;50.754;3.366;2023-05-21T11:27:40;17.40;;;11.35;;
20480;SDS011;10399;50.754;3.366;2023-05-21T11:30:14;17.63;;;11.40;;
20480;SDS011;10399;50.754;3.366;2023-05-21T11:35:54;15.27;;;11.05;;
20480;SDS011;10399;50.754;3.366;2023-05-21T11:38:31;16.48;;;11.43;;
20480;SDS011;10399;50.754;3.366;2023-05-21T11:41:02;15.02;;;12.15;;
20480;SDS011;10399;50.754;3.366;2023-05-21T11:43:29;17.73;;;12.00;;
20480;SDS011;10399;50.754;3.366;2023-05-21T11:45:56;15.70;;;11.52;;
20480;SDS011;10399;50.754;3.366;2023-05-21T11:48:25;16.13;;;11.82;;
20480;SDS011;10399;50.754;3.366;2023-05-21T11:50:55;17.48;;;11.98;;
20480;SDS011;10399;50.754;3.366;2023-05-21T11:53:22;15.48;;;11.93;;
20480;SDS011;10399;50.754;3.366;2023-05-21T11:55:49;17.08;;;12.10;;
20480;SDS011;10399;50.754;3.366;2023-05-21T11:58:23;14.80;;;11.65;;
20480;SDS011;10399;50.754;3.366;2023-05-21T12:00:50;16.10;;;12.43;;
20480;SDS011;10399;50.754;3.366;2023-05-21T12:03:17;15.70;;;12.10;;
20480;SDS011;10399;50.754;3.366;2023-05-21T12:05:47;18.42;;;12.55;;
20480;SDS011;10399;50.754;3.366;2023-05-21T12:08:21;16.20;;;12.90;;
20480;SDS011;10399;50.754;3.366;2023-05-21T12:10:59;17.13;;;12.10;;
20480;SDS011;10399;50.754;3.366;2023-05-21T12:13:27;16.83;;;12.90;;
20480;SDS011;10399;50.754;3.366;2023-05-21T12:15:55;14.32;;;12.82;;
20480;SDS011;10399;50.754;3.366;2023-05-21T12:18:23;17.00;;;12.60;;
20480;SDS011;10399;50.754;3.366;2023-05-21T12:20:51;17.27;;;13.57;;
20480;SDS011;10399;50.754;3.366;2023-05-21T12:23:24;15.57;;;13.05;;
20480;SDS011;10399;50.754;3.366;2023-05-21T12:25:51;21.67;;;12.98;;
20480;SDS011;10399;50.754;3.366;2023-05-21T12:28:19;18.33;;;12.35;;
20480;SDS011;10399;50.754;3.366;2023-05-21T12:30:47;17.63;;;11.18;;
20480;SDS011;10399;50.754;3.366;2023-05-21T12:33:14;18.75;;;11.38;;
20480;SDS011;10399;50.754;3.366;2023-05-21T12:35:46;19.42;;;11.70;;
20480;SDS011;10399;50.754;3.366;2023-05-21T12:38:17;19.35;;;11.95;;
20480;SDS011;10399;50.754;3.366;2023-05-21T12:40:44;21.88;;;11.65;;
20480;SDS011;10399;50.754;3.366;2023-05-21T12:43:11;18.08;;;11.40;;
20480;SDS011;10399;50.754;3.366;2023-05-21T12:45:38;17.23;;;11.65;;
20480;SDS011;10399;50.754;3.366;2023-05-21T12:48:06;22.02;;;12.48;;
20480;SDS011;10399;50.754;3.366;2023-05-21T12:50:37;18.38;;;11.95;;
20480;SDS011;10399;50.754;3.366;2023-05-21T12:53:09;19.75;;;12.32;;
20480;SDS011;10399;50.754;3.366;2023-05-21T12:55:37;19.70;;;12.25;;
20480;SDS011;10399;50.754;3.366;2023-05-21T12:58:06;20.00;;;13.05;;
20480;SDS011;10399;50.754;3.366;2023-05-21T13:00:35;21.20;;;12.80;;
20480;SDS011;10399;50.754;3.366;2023-05-21T13:03:03;20.30;;;13.70;;
20480;SDS011;10399;50.754;3.366;2023-05-21T13:05:32;18.40;;;12.73;;
20480;SDS011;10399;50.754;3.366;2023-05-21T13:08:00;19.48;;;12.77;;
20480;SDS011;10399;50.754;3.366;2023-05-21T13:10:27;17.88;;;12.95;;
20480;SDS011;10399;50.754;3.366;2023-05-21T13:12:54;16.85;;;12.55;;
20480;SDS011;10399;50.754;3.366;2023-05-21T13:15:22;18.52;;;12.75;;
20480;SDS011;10399;50.754;3.366;2023-05-21T13:17:49;19.98;;;12.82;;
20480;SDS011;10399;50.754;3.366;2023-05-21T13:20:18;18.65;;;12.75;;
20480;SDS011;10399;50.754;3.366;2023-05-21T13:22:48;22.65;;;12.90;;
20480;SDS011;10399;50.754;3.366;2023-05-21T13:25:17;21.40;;;12.40;;
20480;SDS011;10399;50.754;3.366;2023-05-21T13:27:47;18.10;;;11.07;;
20480;SDS011;10399;50.754;3.366;2023-05-21T13:30:16;21.40;;;12.70;;
20480;SDS011;10399;50.754;3.366;2023-05-21T13:32:44;17.00;;;11.80;;
20480;SDS011;10399;50.754;3.366;2023-05-21T13:35:12;18.73;;;11.57;;
20480;SDS011;10399;50.754;3.366;2023-05-21T13:37:41;21.52;;;11.85;;
20480;SDS011;10399;50.754;3.366;2023-05-21T13:40:08;17.25;;;11.23;;
20480;SDS011;10399;50.754;3.366;2023-05-21T13:42:37;22.67;;;11.10;;
20480;SDS011;10399;50.754;3.366;2023-05-21T13:45:07;18.10;;;11.25;;
20480;SDS011;10399;50.754;3.366;2023-05-21T13:47:36;17.40;;;10.70;;
20480;SDS011;10399;50.754;3.366;2023-05-21T13:50:06;18.92;;;10.57;;
20480;SDS011;10399;50.754;3.366;2023-05-21T13:52:34;19.33;;;10.57;;
20480;SDS011;10399;50.754;3.366;2023-05-21T13:55:01;22.38;;;11.10;;
20480;SDS011;10399;50.754;3.366;2023-05-21T13:57:28;15.90;;;10.27;;
20480;SDS011;10399;50.754;3.366;2023-05-21T13:59:56;18.33;;;11.00;;
20480;SDS011;10399;50.754;3.366;2023-05-21T14:02:50;21.00;;;10.48;;
20480;SDS011;10399;50.754;3.366;2023-05-21T14:05:18;15.95;;;9.82;;
20480;SDS011;10399;50.754;3.366;2023-05-21T14:07:45;21.85;;;11.68;;
20480;SDS011;10399;50.754;3.366;2023-05-21T14:10:13;18.95;;;11.15;;
20480;SDS011;10399;50.754;3.366;2023-05-21T14:12:41;16.88;;;10.85;;
20480;SDS011;10399;50.754;3.366;2023-05-21T14:15:11;20.90;;;11.75;;
20480;SDS011;10399;50.754;3.366;2023-05-21T14:17:38;23.10;;;11.40;;
20480;SDS011;10399;50.754;3.366;2023-05-21T14:20:06;22.90;;;11.23;;
20480;SDS011;10399;50.754;3.366;2023-05-21T14:22:33;19.38;;;11.30;;
20480;SDS011;10399;50.754;3.366;2023-05-21T14:25:00;15.18;;;10.20;;
20480;SDS011;10399;50.754;3.366;2023-05-21T14:27:29;18.52;;;10.30;;
20480;SDS011;10399;50.754;3.366;2023-05-21T14:29:56;17.48;;;9.77;;
20480;SDS011;10399;50.754;3.366;2023-05-21T14:32:23;15.35;;;9.73;;
20480;SDS011;10399;50.754;3.366;2023-05-21T14:34:50;17.08;;;9.30;;
20480;SDS011;10399;50.754;3.366;2023-05-21T14:37:17;18.73;;;9.15;;
20480;SDS011;10399;50.754;3.366;2023-05-21T14:39:44;15.90;;;9.40;;
20480;SDS011;10399;50.754;3.366;2023-05-21T14:42:11;14.57;;;8.98;;
20480;SDS011;10399;50.754;3.366;2023-05-21T14:44:39;16.13;;;8.82;;
20480;SDS011;10399;50.754;3.366;2023-05-21T14:47:06;18.75;;;9.40;;
20480;SDS011;10399;50.754;3.366;2023-05-21T14:49:33;15.98;;;9.20;;
20480;SDS011;10399;50.754;3.366;2023-05-21T14:52:01;16.83;;;9.00;;
20480;SDS011;10399;50.754;3.366;2023-05-21T14:54:28;19.00;;;9.45;;
20480;SDS011;10399;50.754;3.366;2023-05-21T14:56:56;16.45;;;8.93;;
20480;SDS011;10399;50.754;3.366;2023-05-21T14:59:24;18.73;;;9.85;;
20480;SDS011;10399;50.754;3.366;2023-05-21T15:01:52;20.23;;;9.00;;